Time;durP1;ratioP1;P1;durP2;ratioP2;P2;SDS_P1;SDS_P2;PMS_P1;PMS_P2;Temp;Humidity;BMP_temperature;BMP_pressure;BME280_temperature;BME280_humidity;BME280_pressure;Samples;Min_cycle;Max_cycle;Signal;HPM_P1;HPM_P2
2023/06/05 00:00:35;;;;;;;14.65;6.22;;;;;;;11.15;100.00;102067.09;5092573;28;20024;-45
2023/06/05 00:03:00;;;;;;;11.73;6.72;;;;;;;11.15;100.00;102072.25;5093059;28;20029;-47
2023/06/05 00:05:26;;;;;;;13.48;6.75;;;;;;;11.09;100.00;102066.84;5091750;28;20086;-47
2023/06/05 00:07:52;;;;;;;11.88;6.63;;;;;;;11.07;100.00;102072.75;5092921;28;20091;-46
2023/06/05 00:10:17;;;;;;;11.55;6.78;;;;;;;11.05;100.00;102077.81;5091800;28;20081;-45
2023/06/05 00:12:43;;;;;;;12.52;6.22;;;;;;;11.02;100.00;102077.66;5092906;28;20365;-47
2023/06/05 00:15:09;;;;;;;13.95;6.97;;;;;;;10.93;100.00;102072.94;5092926;28;20024;-44
2023/06/05 00:17:34;;;;;;;11.30;6.85;;;;;;;10.87;100.00;102073.56;5091850;28;20024;-46
2023/06/05 00:20:00;;;;;;;11.30;6.60;;;;;;;10.85;100.00;102069.13;5092743;28;20047;-44
2023/06/05 00:22:30;;;;;;;12.27;6.47;;;;;;;10.81;100.00;102080.97;5092479;28;20032;-44
2023/06/05 00:24:56;;;;;;;17.67;7.85;;;;;;;10.74;100.00;102076.31;5091941;28;20446;-44
2023/06/05 00:27:21;;;;;;;12.52;7.25;;;;;;;10.70;100.00;102077.00;5092620;28;20103;-44
2023/06/05 00:29:47;;;;;;;12.30;6.75;;;;;;;10.64;100.00;102068.94;5092799;28;20020;-44
2023/06/05 00:32:13;;;;;;;12.93;6.80;;;;;;;10.58;100.00;102068.69;5091972;28;20044;-46
2023/06/05 00:34:38;;;;;;;13.15;7.53;;;;;;;10.52;100.00;102066.66;5092441;28;20111;-49
2023/06/05 00:37:04;;;;;;;14.60;7.45;;;;;;;10.50;100.00;102063.16;5094248;28;20456;-44
2023/06/05 00:39:30;;;;;;;13.80;7.38;;;;;;;10.41;100.00;102066.13;5095465;28;20031;-49
2023/06/05 00:41:55;;;;;;;17.25;7.78;;;;;;;10.44;100.00;102068.00;5096744;28;20020;-44
2023/06/05 00:44:20;;;;;;;17.00;8.13;;;;;;;10.40;100.00;102066.06;5096137;28;20024;-44
2023/06/05 00:46:48;;;;;;;17.17;8.00;;;;;;;10.33;100.00;102070.88;5095836;28;20032;-47
2023/06/05 00:49:15;;;;;;;14.05;7.68;;;;;;;10.29;100.00;102062.91;5096471;28;20034;-44
2023/06/05 00:51:43;;;;;;;18.83;8.23;;;;;;;10.30;100.00;102067.25;5096145;28;20028;-44
2023/06/05 00:54:08;;;;;;;11.18;7.43;;;;;;;10.31;100.00;102067.31;5095515;28;20110;-45
2023/06/05 00:56:35;;;;;;;11.80;7.53;;;;;;;10.30;100.00;102075.00;5096122;28;20102;-45
2023/06/05 00:59:01;;;;;;;15.23;8.10;;;;;;;10.26;100.00;102070.50;5096292;28;20031;-43
2023/06/05 01:01:28;;;;;;;14.20;7.43;;;;;;;10.23;100.00;102060.03;5095157;28;20032;-46
2023/06/05 01:03:57;;;;;;;17.57;8.20;;;;;;;10.17;100.00;102066.66;5096126;28;20455;-44
2023/06/05 01:06:26;;;;;;;15.55;8.07;;;;;;;10.16;100.00;102072.59;5095981;28;20310;-45
2023/06/05 01:08:52;;;;;;;12.38;7.90;;;;;;;10.08;100.00;102071.31;5095190;28;20467;-44
2023/06/05 01:11:39;;;;;;;13.90;8.10;;;;;;;10.10;100.00;102069.72;5095599;28;20032;-44
2023/06/05 01:14:27;;;;;;;13.82;7.78;;;;;;;10.05;100.00;102066.88;5095085;28;20486;-46
2023/06/05 01:16:54;;;;;;;17.75;8.50;;;;;;;9.97;100.00;102059.59;5095807;28;20471;-45
2023/06/05 01:19:21;;;;;;;13.90;8.30;;;;;;;9.92;100.00;102064.50;5095204;28;20464;-45
2023/06/05 01:21:49;;;;;;;15.27;8.30;;;;;;;9.85;100.00;102063.31;5095197;28;20032;-45
2023/06/05 01:24:15;;;;;;;17.20;8.68;;;;;;;9.84;100.00;102055.50;5095704;28;20373;-44
2023/06/05 01:27:00;;;;;;;15.32;8.30;;;;;;;9.86;100.00;102061.59;5095769;28;20031;-46
2023/06/05 01:29:53;;;;;;;14.15;8.90;;;;;;;9.83;100.00;102059.75;5094460;28;20042;-45
2023/06/05 01:32:29;;;;;;;12.65;9.00;;;;;;;9.77;100.00;102063.69;5095473;28;20404;-46
2023/06/05 01:55:12;;;;;;;13.18;9.48;;;;;;;9.54;100.00;102051.38;5095435;28;20077;-45
2023/06/05 01:57:37;;;;;;;14.05;9.70;;;;;;;9.48;100.00;102040.75;5094391;28;20024;-46
2023/06/05 02:00:08;;;;;;;14.68;10.25;;;;;;;9.51;100.00;102040.91;5095263;28;20031;-44
2023/06/05 02:02:34;;;;;;;16.40;10.27;;;;;;;9.42;100.00;102043.00;5094703;28;20020;-46
2023/06/05 02:04:59;;;;;;;18.42;10.75;;;;;;;9.42;100.00;102045.56;5094247;28;20046;-44
2023/06/05 02:07:25;;;;;;;16.88;10.25;;;;;;;9.34;100.00;102036.56;5094609;28;20067;-44
2023/06/05 02:09:50;;;;;;;15.50;10.43;;;;;;;9.32;100.00;102028.78;5094020;28;20467;-46
2023/06/05 02:12:16;;;;;;;17.65;11.38;;;;;;;9.32;100.00;102033.03;5094596;28;20467;-46
2023/06/05 02:14:44;;;;;;;21.00;11.07;;;;;;;9.33;100.00;102030.53;5094814;28;20103;-45
2023/06/05 02:17:13;;;;;;;13.48;10.43;;;;;;;9.27;100.00;102027.66;5093912;28;20020;-44
2023/06/05 02:19:38;;;;;;;14.85;10.07;;;;;;;9.24;100.00;102030.03;5094144;28;20044;-44
2023/06/05 02:22:04;;;;;;;13.60;10.63;;;;;;;9.24;100.00;102032.59;5094591;28;20088;-46
2023/06/05 02:24:29;;;;;;;15.82;10.73;;;;;;;9.16;100.00;102031.31;5093727;28;20032;-44
2023/06/05 02:26:54;;;;;;;17.40;10.98;;;;;;;9.12;100.00;102029.38;5094456;28;20024;-44
2023/06/05 02:29:20;;;;;;;15.18;11.00;;;;;;;9.08;100.00;102028.31;5094198;28;20036;-44
2023/06/05 02:31:45;;;;;;;17.60;11.45;;;;;;;9.06;100.00;102025.69;5093860;28;20028;-44
2023/06/05 02:34:11;;;;;;;15.13;11.18;;;;;;;9.06;100.00;102023.09;5094309;28;20020;-44
2023/06/05 02:36:37;;;;;;;15.27;11.23;;;;;;;9.00;100.00;102024.44;5094123;28;20095;-44
2023/06/05 02:39:04;;;;;;;18.02;11.38;;;;;;;9.02;100.00;102023.72;5093601;28;20122;-45
2023/06/05 02:41:30;;;;;;;17.02;11.45;;;;;;;8.96;100.00;102023.41;5094001;28;20032;-43
2023/06/05 02:43:56;;;;;;;17.23;11.20;;;;;;;8.92;100.00;102020.56;5094184;28;20024;-44
2023/06/05 02:46:22;;;;;;;14.60;11.20;;;;;;;8.94;100.00;102013.84;5093131;28;20471;-44
2023/06/05 02:48:47;;;;;;;14.95;11.70;;;;;;;8.89;100.00;102021.28;5094199;28;20024;-43
2023/06/05 02:51:13;;;;;;;14.07;11.20;;;;;;;8.84;100.00;102025.28;5094017;28;20468;-44
2023/06/05 02:53:38;;;;;;;16.05;11.35;;;;;;;8.80;100.00;102020.78;5093358;28;20509;-46
2023/06/05 02:56:04;;;;;;;16.35;11.43;;;;;;;8.76;100.00;102019.72;5093926;28;20479;-44
2023/06/05 02:58:31;;;;;;;18.13;12.07;;;;;;;8.76;100.00;102014.56;5093308;28;20101;-44
2023/06/05 03:01:01;;;;;;;18.88;12.32;;;;;;;8.77;100.00;102015.47;5092848;28;20440;-45
2023/06/05 03:03:33;;;;;;;17.42;11.27;;;;;;;8.74;100.00;102018.75;5093875;28;20027;-46
2023/06/05 03:06:04;;;;;;;16.27;11.52;;;;;;;8.70;100.00;102016.78;5093764;28;20016;-45
2023/06/05 03:08:36;;;;;;;16.08;12.13;;;;;;;8.69;100.00;102026.19;5093464;28;20103;-44
2023/06/05 03:11:03;;;;;;;16.05;12.07;;;;;;;8.67;100.00;102019.19;5093708;28;20353;-45
2023/06/05 03:13:28;;;;;;;18.00;12.23;;;;;;;8.64;100.00;102017.34;5092462;28;20525;-47
2023/06/05 03:16:00;;;;;;;19.20;12.48;;;;;;;8.58;100.00;102019.56;5093743;28;20036;-44
2023/06/05 03:18:29;;;;;;;16.75;11.95;;;;;;;8.58;100.00;102019.56;5093310;28;20052;-44
2023/06/05 03:20:56;;;;;;;17.08;12.70;;;;;;;8.60;100.00;102017.06;5092483;28;20055;-48
2023/06/05 03:23:25;;;;;;;16.55;12.52;;;;;;;8.55;100.00;102014.25;5093312;28;20130;-48
2023/06/05 03:25:51;;;;;;;15.90;12.73;;;;;;;8.56;100.00;102011.78;5093439;28;20028;-44
2023/06/05 03:28:20;;;;;;;20.60;12.35;;;;;;;8.52;100.00;102011.50;5092298;28;20379;-45
2023/06/05 03:30:46;;;;;;;18.58;12.77;;;;;;;8.52;100.00;102004.69;5093585;28;20032;-49
2023/06/05 03:33:19;;;;;;;16.15;12.15;;;;;;;8.48;100.00;102002.75;5093325;28;20028;-48
2023/06/05 03:35:48;;;;;;;16.77;13.05;;;;;;;8.48;100.00;101997.63;5092855;28;20103;-48
2023/06/05 03:38:14;;;;;;;17.55;12.73;;;;;;;8.53;100.00;102003.00;5093301;28;20087;-49
2023/06/05 03:40:39;;;;;;;18.27;12.60;;;;;;;8.49;100.00;101999.38;5092562;28;20052;-48
2023/06/05 03:43:06;;;;;;;17.15;12.20;;;;;;;8.48;100.00;102007.00;5092544;28;20076;-46
2023/06/05 03:45:31;;;;;;;15.48;11.52;;;;;;;8.45;100.00;102005.09;5092880;28;20468;-49
2023/06/05 03:47:59;;;;;;;17.50;12.85;;;;;;;8.47;100.00;101993.28;5093011;28;20036;-46
2023/06/05 03:50:25;;;;;;;21.02;13.32;;;;;;;8.47;100.00;101998.41;5092345;28;20073;-49
2023/06/05 03:52:52;;;;;;;17.33;12.63;;;;;;;8.48;100.00;102002.75;5093067;28;20023;-48
2023/06/05 03:55:19;;;;;;;18.97;13.57;;;;;;;8.53;100.00;102000.44;5092075;28;20028;-45
2023/06/05 03:57:47;;;;;;;17.55;13.57;;;;;;;8.49;100.00;102001.94;5093117;28;20055;-48
2023/06/05 04:00:14;;;;;;;17.00;13.82;;;;;;;8.50;100.00;102006.28;5093090;28;20100;-47
2023/06/05 04:02:41;;;;;;;18.45;13.65;;;;;;;8.50;100.00;101997.69;5092091;28;20039;-48
2023/06/05 04:05:11;;;;;;;18.52;13.43;;;;;;;8.50;100.00;102003.72;5093143;28;20055;-48
2023/06/05 04:07:36;;;;;;;22.42;13.48;;;;;;;8.53;100.00;101998.75;5092561;28;20028;-49
2023/06/05 04:10:02;;;;;;;16.85;13.50;;;;;;;8.54;100.00;102003.09;5092187;28;20024;-49
2023/06/05 04:12:28;;;;;;;18.25;14.00;;;;;;;8.55;100.00;101999.72;5095224;28;20031;-47
2023/06/05 04:14:53;;;;;;;18.35;13.93;;;;;;;8.57;100.00;101997.22;5097165;28;20031;-48
2023/06/05 04:17:19;;;;;;;18.55;14.07;;;;;;;8.60;100.00;101999.09;5095881;28;20401;-49
2023/06/05 04:19:44;;;;;;;20.08;13.35;;;;;;;8.62;100.00;102006.09;5096742;28;20040;-48
2023/06/05 04:22:10;;;;;;;17.42;13.73;;;;;;;8.64;100.00;102001.06;5096886;28;20028;-49
2023/06/05 04:24:35;;;;;;;18.35;13.75;;;;;;;8.66;100.00;101997.78;5095818;28;20395;-47
2023/06/05 04:27:00;;;;;;;17.88;13.48;;;;;;;8.67;100.00;102004.66;5097230;28;20027;-49
2023/06/05 04:29:26;;;;;;;22.23;14.05;;;;;;;8.72;100.00;102008.38;5096172;28;20106;-47
2023/06/05 04:31:52;;;;;;;20.10;14.85;;;;;;;8.74;100.00;102011.06;5096335;28;20020;-47
2023/06/05 04:34:18;;;;;;;18.65;13.10;;;;;;;8.77;100.00;102007.75;5096410;28;20099;-45
2023/06/05 04:36:44;;;;;;;17.30;13.05;;;;;;;8.82;100.00;102020.06;5096466;28;20023;-48
2023/06/05 04:39:15;;;;;;;19.95;13.75;;;;;;;8.84;100.00;102010.72;5095947;28;20036;-49
2023/06/05 04:41:45;;;;;;;19.83;13.95;;;;;;;8.88;100.00;102019.50;5096591;28;20527;-45
2023/06/05 04:44:16;;;;;;;18.65;13.98;;;;;;;8.93;100.00;102018.06;5096390;28;20028;-47
2023/06/05 04:46:43;;;;;;;19.65;13.40;;;;;;;8.98;100.00;102018.34;5096075;28;20095;-48
2023/06/05 04:49:15;;;;;;;18.65;13.75;;;;;;;9.03;100.00;102019.47;5096407;28;20035;-44
2023/06/05 04:51:42;;;;;;;17.75;14.05;;;;;;;9.06;100.00;102024.78;5095805;28;20031;-49
2023/06/05 04:54:08;;;;;;;19.05;14.40;;;;;;;9.16;100.00;102021.91;5096297;28;20413;-45
2023/06/05 04:56:34;;;;;;;17.67;14.52;;;;;;;9.22;100.00;102017.09;5096199;28;20095;-46
2023/06/05 04:59:01;;;;;;;20.30;14.85;;;;;;;9.30;100.00;102022.66;5095354;28;20375;-48
2023/06/05 05:01:27;;;;;;;18.30;13.83;;;;;;;9.35;100.00;102020.34;5095828;28;20383;-48
2023/06/05 05:03:52;;;;;;;24.35;14.52;;;;;;;9.38;100.00;102023.06;5096194;28;20032;-48
2023/06/05 05:06:19;;;;;;;18.83;14.13;;;;;;;9.47;100.00;102020.97;5095001;28;20024;-48
2023/06/05 05:08:46;;;;;;;18.58;14.60;;;;;;;9.53;100.00;102029.03;5096077;28;20029;-49
2023/06/05 05:11:12;;;;;;;16.77;13.77;;;;;;;9.60;100.00;102025.06;5096319;28;20039;-48
2023/06/05 05:13:38;;;;;;;17.10;14.23;;;;;;;9.64;100.00;102028.69;5094789;28;20107;-47
2023/06/05 05:16:03;;;;;;;19.15;15.07;;;;;;;9.71;100.00;102025.66;5096037;28;20115;-48
2023/06/05 05:18:29;;;;;;;19.05;14.05;;;;;;;9.79;100.00;102026.06;5095155;28;20031;-46
2023/06/05 05:20:55;;;;;;;20.77;13.90;;;;;;;9.82;100.00;102027.06;5095086;28;20048;-48
2023/06/05 05:23:21;;;;;;;18.98;13.57;;;;;;;9.87;100.00;102025.63;5095344;28;20344;-45
2023/06/05 05:25:46;;;;;;;17.92;14.18;;;;;;;9.94;100.00;102018.22;5095649;28;20023;-45
2023/06/05 05:28:13;;;;;;;17.75;14.07;;;;;;;10.02;100.00;102024.66;5095176;28;20027;-49
2023/06/05 05:30:38;;;;;;;19.00;14.52;;;;;;;10.12;100.00;102016.59;5095392;28;20017;-46
2023/06/05 05:33:03;;;;;;;17.02;13.35;;;;;;;10.17;100.00;102012.56;5095321;28;20016;-48
2023/06/05 05:35:30;;;;;;;19.80;14.65;;;;;;;10.23;100.00;102013.66;5094636;28;20046;-48
2023/06/05 05:37:56;;;;;;;21.48;14.82;;;;;;;10.29;100.00;102014.84;5095573;28;20100;-48
2023/06/05 05:40:21;;;;;;;17.98;14.68;;;;;;;10.37;100.00;102020.41;5094998;28;20465;-49
2023/06/05 05:42:46;;;;;;;17.10;13.35;;;;;;;10.45;100.00;102015.63;5094975;28;20066;-44
2023/06/05 05:45:12;;;;;;;19.75;14.00;;;;;;;10.56;100.00;102021.31;5095585;28;20031;-48
2023/06/05 05:47:37;;;;;;;18.17;13.60;;;;;;;10.60;100.00;102021.53;5094781;28;20432;-48
2023/06/05 05:50:03;;;;;;;16.83;14.93;;;;;;;10.72;100.00;102026.41;5094471;28;20476;-46
2023/06/05 05:52:29;;;;;;;19.77;14.30;;;;;;;10.80;100.00;102024.19;5074848;28;20028;-48
2023/06/05 05:54:54;;;;;;;23.38;13.68;;;;;;;10.85;100.00;102022.72;5074297;28;20043;-48
2023/06/05 05:57:19;;;;;;;16.40;13.75;;;;;;;10.92;100.00;102034.19;5074562;28;20020;-46
2023/06/05 05:59:45;;;;;;;18.70;14.18;;;;;;;11.01;100.00;102034.63;5074737;28;20016;-47
2023/06/05 06:02:11;;;;;;;17.27;13.23;;;;;;;11.13;100.00;102032.63;5074039;28;20021;-50
2023/06/05 06:04:37;;;;;;;18.77;13.77;;;;;;;11.22;100.00;102031.28;5074709;28;20104;-47
2023/06/05 06:07:02;;;;;;;17.55;13.55;;;;;;;11.29;100.00;102030.75;5074607;28;20115;-49
2023/06/05 06:09:27;;;;;;;19.88;14.40;;;;;;;11.38;100.00;102032.88;5073754;28;20032;-49
2023/06/05 06:11:56;;;;;;;17.52;13.63;;;;;;;11.44;100.00;102041.78;5074723;28;20048;-49
2023/06/05 06:14:22;;;;;;;18.00;13.68;;;;;;;11.49;100.00;102042.84;5074288;28;20100;-48
2023/06/05 06:16:49;;;;;;;16.63;13.15;;;;;;;11.54;100.00;102053.38;5073594;28;20376;-47
2023/06/05 06:19:16;;;;;;;19.15;13.23;;;;;;;11.69;100.00;102048.03;5074151;28;20464;-46
2023/06/05 06:21:41;;;;;;;18.08;13.43;;;;;;;11.81;100.00;102045.09;5074419;28;20103;-47
2023/06/05 06:24:06;;;;;;;18.20;13.45;;;;;;;11.91;100.00;102047.25;5073942;28;20112;-48
2023/06/05 06:26:32;;;;;;;17.88;12.93;;;;;;;11.93;100.00;102047.31;5074002;28;20024;-47
2023/06/05 06:28:59;;;;;;;17.88;13.40;;;;;;;12.08;100.00;102041.97;5073976;28;20033;-48
2023/06/05 06:31:24;;;;;;;18.50;13.25;;;;;;;12.13;100.00;102038.75;5073381;28;20090;-49
2023/06/05 06:33:50;;;;;;;17.80;12.80;;;;;;;12.22;100.00;102045.16;5073885;28;20036;-49
2023/06/05 06:36:17;;;;;;;16.02;12.38;;;;;;;12.26;100.00;102036.69;5073467;28;20020;-44
2023/06/05 06:38:43;;;;;;;21.10;13.77;;;;;;;12.25;100.00;102040.09;5073591;28;20052;-47
2023/06/05 06:41:08;;;;;;;15.52;13.20;;;;;;;12.37;100.00;102035.44;5074127;28;20067;-48
2023/06/05 06:43:33;;;;;;;16.58;12.70;;;;;;;12.41;100.00;102036.44;5073608;28;20017;-44
2023/06/05 06:46:00;;;;;;;17.45;12.85;;;;;;;12.63;100.00;102040.81;5073291;28;20016;-45
2023/06/05 06:48:25;;;;;;;15.63;12.77;;;;;;;12.59;98.86;102042.38;5073751;28;20078;-48
2023/06/05 06:50:51;;;;;;;17.67;13.07;;;;;;;12.81;100.00;102046.69;5073706;28;20025;-48
2023/06/05 06:53:16;;;;;;;14.65;12.43;;;;;;;12.85;98.47;102043.41;5073124;28;20029;-49
2023/06/05 06:55:42;;;;;;;17.85;12.38;;;;;;;12.96;97.74;102048.13;5073852;28;20499;-48
2023/06/05 06:58:07;;;;;;;16.30;12.43;;;;;;;12.99;95.79;102050.84;5073210;28;20038;-47
2023/06/05 07:00:33;;;;;;;15.52;12.93;;;;;;;13.11;95.41;102053.03;5072760;28;20040;-49
2023/06/05 07:02:59;;;;;;;14.32;11.70;;;;;;;13.08;94.16;102052.88;5073554;28;20097;-45
2023/06/05 07:05:24;;;;;;;16.40;11.65;;;;;;;13.18;95.09;102050.72;5072655;28;20030;-48
2023/06/05 07:07:49;;;;;;;18.45;12.23;;;;;;;13.27;94.66;102054.47;5073758;28;20105;-47
2023/06/05 07:10:15;;;;;;;15.93;12.23;;;;;;;13.36;93.31;102060.00;5073535;28;20017;-47
2023/06/05 07:12:40;;;;;;;16.17;11.80;;;;;;;13.46;92.69;102062.13;5072545;28;20021;-48
2023/06/05 07:15:06;;;;;;;14.60;12.07;;;;;;;13.56;92.25;102067.69;5073345;28;20028;-49
2023/06/05 07:17:31;;;;;;;15.98;11.27;;;;;;;13.74;92.29;102064.88;5072855;28;20048;-49
2023/06/05 07:19:57;;;;;;;17.80;11.38;;;;;;;13.88;91.15;102073.13;5072635;28;20050;-45
2023/06/05 07:22:24;;;;;;;15.65;11.88;;;;;;;14.00;91.23;102071.84;5072807;28;20034;-44
2023/06/05 07:24:50;;;;;;;16.98;12.38;;;;;;;14.08;89.91;102064.34;5073104;28;20020;-49
2023/06/05 07:27:16;;;;;;;14.05;10.20;;;;;;;14.23;90.36;102060.50;5072409;28;20032;-45
2023/06/05 07:29:42;;;;;;;16.83;11.35;;;;;;;14.32;89.14;102061.72;5073280;28;20133;-49
2023/06/05 07:32:07;;;;;;;13.23;9.77;;;;;;;14.43;87.88;102069.84;5073011;28;20498;-48
2023/06/05 07:34:33;;;;;;;14.57;10.95;;;;;;;14.51;87.44;102064.91;5072498;28;20025;-46
2023/06/05 07:36:59;;;;;;;16.08;10.68;;;;;;;14.57;86.80;102066.84;5073023;28;20456;-45
2023/06/05 07:39:24;;;;;;;16.70;9.45;;;;;;;14.72;86.80;102069.97;5072489;28;20103;-48
2023/06/05 07:41:50;;;;;;;16.65;11.55;;;;;;;14.72;84.44;102064.78;5072498;28;20047;-47
2023/06/05 07:44:17;;;;;;;14.77;10.18;;;;;;;14.89;86.20;102064.44;5072610;28;20383;-45
2023/06/05 07:46:44;;;;;;;16.17;10.60;;;;;;;15.03;85.64;102064.84;5072720;28;20423;-48
2023/06/05 07:49:10;;;;;;;17.17;10.73;;;;;;;14.95;82.27;102068.09;5072495;28;20033;-47
2023/06/05 07:51:36;;;;;;;12.13;9.68;;;;;;;14.92;80.90;102067.13;5072845;28;20392;-49
2023/06/05 07:54:07;;;;;;;14.65;10.15;;;;;;;15.07;82.54;102066.72;5072653;28;20029;-47
2023/06/05 07:56:33;;;;;;;13.30;9.32;;;;;;;15.19;82.10;102066.22;5072075;28;20073;-49
2023/06/05 07:59:00;;;;;;;12.73;9.80;;;;;;;15.21;80.27;102069.72;5072697;28;20036;-47
2023/06/05 08:01:25;;;;;;;17.47;10.00;;;;;;;15.25;79.23;102063.81;5072503;28;20040;-46
2023/06/05 08:03:51;;;;;;;13.77;9.82;;;;;;;15.51;81.94;102063.69;5072649;28;20029;-48
2023/06/05 08:06:16;;;;;;;18.45;9.60;;;;;;;15.53;80.03;102067.19;5072491;28;20017;-45
2023/06/05 08:08:42;;;;;;;11.68;8.57;;;;;;;15.71;82.11;102065.13;5072104;28;20082;-44
2023/06/05 08:11:08;;;;;;;17.83;9.30;;;;;;;15.91;79.96;102062.22;5072689;28;20472;-48
2023/06/05 08:13:33;;;;;;;13.48;8.80;;;;;;;16.02;78.55;102059.91;5072187;28;20044;-49
2023/06/05 08:15:58;;;;;;;11.73;8.27;;;;;;;16.04;76.67;102056.50;5071938;28;20376;-48
2023/06/05 08:18:24;;;;;;;12.27;9.75;;;;;;;16.09;76.88;102051.44;5072327;28;20032;-48
2023/06/05 08:20:50;;;;;;;12.35;9.00;;;;;;;16.07;75.81;102051.38;5072429;28;20056;-46
2023/06/05 08:23:16;;;;;;;14.05;9.68;;;;;;;16.11;75.42;102048.03;5071976;28;20093;-44
2023/06/05 08:25:42;;;;;;;14.50;9.25;;;;;;;16.18;75.78;102053.38;5072535;28;20021;-49
2023/06/05 08:28:08;;;;;;;12.13;9.57;;;;;;;16.36;74.89;102045.16;5072380;28;20162;-49
2023/06/05 08:30:33;;;;;;;18.70;9.35;;;;;;;16.35;73.27;102041.69;5071676;28;20029;-45
2023/06/05 08:32:58;;;;;;;12.18;8.75;;;;;;;16.52;75.67;102041.22;5072602;28;20062;-48
2023/06/05 08:35:23;;;;;;;15.98;9.20;;;;;;;16.69;75.02;102042.47;5071893;28;20024;-50
2023/06/05 08:37:49;;;;;;;14.13;9.60;;;;;;;16.83;73.66;102044.53;5071926;28;20032;-46
2023/06/05 08:40:16;;;;;;;14.25;9.25;;;;;;;16.94;73.88;102045.72;5072497;28;20016;-46
2023/06/05 08:42:42;;;;;;;15.38;9.48;;;;;;;17.02;71.79;102035.47;5072182;28;20032;-50
2023/06/05 08:45:08;;;;;;;12.05;8.57;;;;;;;17.22;72.34;102041.97;5071771;28;20012;-49
2023/06/05 08:47:37;;;;;;;11.85;8.73;;;;;;;17.32;70.84;102043.03;5072283;28;20466;-48
2023/06/05 08:50:06;;;;;;;11.93;8.00;;;;;;;17.34;69.70;102033.53;5072060;28;20598;-51
2023/06/05 08:52:36;;;;;;;13.10;7.90;;;;;;;17.50;68.69;102034.72;5071732;28;20074;-49
2023/06/05 08:55:04;;;;;;;11.68;8.20;;;;;;;17.60;69.30;102035.78;5072290;28;20028;-49
2023/06/05 08:57:31;;;;;;;11.88;8.85;;;;;;;17.73;69.67;102031.69;5072569;28;20107;-46
2023/06/05 08:59:59;;;;;;;13.32;8.00;;;;;;;17.85;69.39;102036.25;5075649;28;20020;-47
2023/06/05 09:02:24;;;;;;;12.35;8.07;;;;;;;17.93;68.96;102040.78;5075859;28;20108;-49
2023/06/05 09:04:49;;;;;;;15.15;8.18;;;;;;;18.20;70.91;102028.19;5075261;28;20154;-45
2023/06/05 09:07:15;;;;;;;11.75;7.65;;;;;;;18.28;66.89;102037.00;5075961;28;20028;-48
2023/06/05 09:09:42;;;;;;;12.00;7.13;;;;;;;18.37;65.77;102026.75;5075699;28;20410;-49
2023/06/05 09:12:08;;;;;;;10.77;7.38;;;;;;;18.39;65.00;102024.16;5074991;28;20023;-46
2023/06/05 09:14:34;;;;;;;13.55;7.13;;;;;;;18.49;64.89;102031.28;5075569;28;20040;-47
2023/06/05 09:17:01;;;;;;;11.05;7.38;;;;;;;18.62;64.14;102032.34;5075563;28;20027;-50
2023/06/05 09:19:40;;;;;;;10.52;6.80;;;;;;;18.83;66.70;102025.69;5074661;28;20056;-50
2023/06/05 09:22:12;;;;;;;14.48;7.45;;;;;;;18.81;64.65;102027.38;5075552;28;20103;-46
2023/06/05 09:24:38;;;;;;;14.35;7.65;;;;;;;18.83;63.12;102030.91;5075131;28;20047;-48
2023/06/05 09:27:08;;;;;;;16.27;7.10;;;;;;;18.94;62.44;102018.91;5075083;28;20025;-47
2023/06/05 09:29:37;;;;;;;15.27;7.60;;;;;;;19.01;62.13;102025.09;5075176;28;20035;-45
2023/06/05 09:32:05;;;;;;;11.30;6.90;;;;;;;19.23;64.13;102019.28;5075190;28;20020;-50
2023/06/05 09:34:33;;;;;;;12.25;6.32;;;;;;;19.29;62.43;102021.09;5074540;28;20104;-48
2023/06/05 09:37:03;;;;;;;10.43;6.53;;;;;;;19.30;61.01;102016.75;5075139;28;20108;-46
2023/06/05 09:39:30;;;;;;;12.07;6.72;;;;;;;19.41;59.44;102013.38;5074844;28;20028;-48
2023/06/05 09:41:57;;;;;;;15.45;7.82;;;;;;;19.57;60.47;102017.06;5074642;28;20078;-47
2023/06/05 09:44:23;;;;;;;9.18;6.35;;;;;;;19.65;58.87;102011.94;5075020;28;20074;-49
2023/06/05 09:46:59;;;;;;;11.10;7.00;;;;;;;19.79;59.77;102021.63;5074924;28;20082;-48
2023/06/05 09:49:30;;;;;;;9.77;6.28;;;;;;;19.86;59.99;102018.25;5074884;28;20082;-48
2023/06/05 09:51:58;;;;;;;11.30;6.60;;;;;;;20.28;61.12;102018.63;5074980;28;20115;-49
2023/06/05 09:54:26;;;;;;;11.73;6.70;;;;;;;20.69;57.69;102016.28;5074023;28;20025;-46
2023/06/05 09:56:59;;;;;;;12.05;6.70;;;;;;;20.72;57.16;102013.72;5074988;28;20108;-45
2023/06/05 09:59:29;;;;;;;9.88;6.32;;;;;;;20.63;52.63;102011.03;5074272;28;20028;-48
2023/06/05 10:01:55;;;;;;;12.60;6.55;;;;;;;21.24;55.82;102012.25;5074184;28;20023;-47
2023/06/05 10:04:25;;;;;;;9.18;6.20;;;;;;;21.15;52.25;102012.19;5074779;28;20029;-49
2023/06/05 10:06:52;;;;;;;15.32;6.35;;;;;;;21.68;52.64;102011.50;5074608;28;20024;-45
2023/06/05 10:09:17;;;;;;;13.93;6.70;;;;;;;21.90;51.96;102003.69;5072863;28;20028;-50
2023/06/05 10:11:43;;;;;;;9.05;6.18;;;;;;;22.13;49.53;102011.56;5074884;28;20020;-49
2023/06/05 10:14:09;;;;;;;11.88;6.68;;;;;;;22.30;47.75;102010.69;5074379;28;20413;-50
2023/06/05 10:16:35;;;;;;;9.77;5.80;;;;;;;23.15;47.91;102000.88;5073813;28;20115;-50
2023/06/05 10:19:03;;;;;;;8.88;5.28;;;;;;;24.07;45.58;102001.19;5074317;28;20111;-46
2023/06/05 10:21:29;;;;;;;10.30;5.45;;;;;;;24.33;42.46;102000.94;5073771;28;20095;-50
2023/06/05 10:24:02;;;;;;;8.60;5.25;;;;;;;25.09;41.94;102001.94;5073870;28;20444;-49
2023/06/05 10:26:51;;;;;;;11.05;5.45;;;;;;;25.91;40.91;102004.28;5074193;28;20461;-46
2023/06/05 10:29:32;;;;;;;10.00;4.90;;;;;;;26.69;40.44;102002.91;5073387;28;20024;-48
2023/06/05 10:32:05;;;;;;;11.23;5.18;;;;;;;27.20;37.59;102005.41;5074284;28;20028;-49
2023/06/05 10:34:47;;;;;;;11.27;4.90;;;;;;;27.24;36.74;101999.19;5073615;28;20024;-49
2023/06/05 10:37:34;;;;;;;8.63;4.80;;;;;;;27.50;36.58;102003.03;5074000;28;20070;-46
2023/06/05 10:40:00;;;;;;;7.90;5.43;;;;;;;27.55;34.27;102001.16;5074183;28;20061;-44
2023/06/05 10:42:27;;;;;;;12.65;5.07;;;;;;;27.60;34.00;102001.94;5073612;28;20029;-48
2023/06/05 10:44:52;;;;;;;8.93;5.63;;;;;;;27.81;34.62;101997.00;5073504;28;20396;-45
2023/06/05 10:47:33;;;;;;;11.10;5.20;;;;;;;27.86;36.48;101995.13;5073610;28;20043;-51
2023/06/05 10:50:16;;;;;;;11.93;5.50;;;;;;;28.36;35.66;102001.81;5073623;28;20090;-49
2023/06/05 10:52:42;;;;;;;9.25;4.93;;;;;;;28.62;33.46;102000.25;5073920;28;20104;-50
2023/06/05 10:55:09;;;;;;;8.30;4.50;;;;;;;28.78;33.24;102000.69;5073940;28;20090;-50
2023/06/05 10:58:08;;;;;;;10.52;4.63;;;;;;;28.78;33.59;101996.28;5072735;28;20027;-49
2023/06/05 11:00:34;;;;;;;7.70;4.30;;;;;;;28.00;32.38;101988.59;5073558;28;20029;-49
2023/06/05 11:03:00;;;;;;;9.88;4.80;;;;;;;28.04;33.65;101992.94;5073201;28;20020;-50
2023/06/05 11:05:26;;;;;;;8.80;5.32;;;;;;;28.04;34.22;101982.34;5072981;28;20021;-48
2023/06/05 11:08:14;;;;;;;10.27;5.20;;;;;;;28.33;34.60;101978.03;5073470;28;20031;-49
2023/06/05 11:11:02;;;;;;;7.68;4.55;;;;;;;28.69;35.05;101977.94;5072958;28;20042;-49
2023/06/05 11:13:54;;;;;;;10.02;4.75;;;;;;;28.89;34.58;101972.94;5072753;28;20426;-49
2023/06/05 11:16:36;;;;;;;7.15;3.83;;;;;;;29.54;32.87;101981.59;5072900;28;20024;-49
2023/06/05 11:19:20;;;;;;;6.43;3.70;;;;;;;29.86;31.46;101977.00;5072836;28;20039;-45
2023/06/05 11:22:06;;;;;;;7.32;3.80;;;;;;;30.09;31.96;101969.19;5073151;28;20043;-49
2023/06/05 11:24:32;;;;;;;6.18;3.92;;;;;;;30.04;29.15;101970.19;5072878;28;20024;-50
2023/06/05 11:26:57;;;;;;;7.05;4.22;;;;;;;29.74;29.13;101964.13;5072667;28;20021;-49
2023/06/05 11:29:25;;;;;;;8.00;3.92;;;;;;;29.73;30.04;101971.25;5072838;28;20036;-48
2023/06/05 11:31:51;;;;;;;11.45;4.38;;;;;;;29.76;30.05;101967.63;5073185;28;20025;-48
2023/06/05 11:34:16;;;;;;;9.90;4.72;;;;;;;29.73;29.80;101970.34;5072324;28;20021;-50